Accueil
METAR-TAF:

METAR-TAF

Aéroports :

Aéroport de Newquay Cornouailles

Newquay Cornwall, Angleterre

latitude: 50-26N, longitude: 005-00W, altitude: 119 m

Observation

Le bulletin a été fait il y a 2 heures et 49 minutes, à 20:50 UTC
Vent 3 kt de nord
Température 14°C
Humidité 82%
Pression 1027 hPa
Visibilité 10 km ou plus
Quelques nuages à une hauteur de 4500 ft

METAR: EGHQ 232050Z 35003KT 9999 FEW045 14/11 Q1027

Heure: 00:39 (23:39 UTC)

Prévision

Le bulletin a été fait il y a 6 heures et 45 minutes, à 16:54 UTC
Prévision valable du 23 à 18 UTC au 23 à 21 UTC
Vent 6 kt de nord
Visibilité 10 km ou plus
pas de nuages en-dessous de 1500 mètres et pas de cumulonimbus.

TAF: EGHQ 231654Z 2318/2321 35006KT CAVOK

Observations et prévisions météorologiques de plus de 4000 aéroports (messages METAR et TAF).

Les stations disponibles sont représentées par des disques jaunes et rouges sur la carte.

Passer la souris dessus pour voir le nom de la station.

Cliquer dessus pour voir les observations et prévisions météorologiques.

Pour changer de carte: cliquez sur les boutons verts avec une croix noire pour zoomer, sur le bouton vert avec un tiret pour effectuer un zoom arrière, ou sur les flèches vertes pour les cartes adjacentes.


METAR-TAF: